createdAt,value
2023-01-11T00:00:47.688Z,1.07
2023-01-11T00:03:15.813Z,1.08
2023-01-11T00:05:44.322Z,1.09
2023-01-11T00:08:12.852Z,1.07
2023-01-11T00:10:40.912Z,1.10
2023-01-11T00:13:08.644Z,1.10
2023-01-11T00:15:38.267Z,1.09
2023-01-11T00:18:06.726Z,1.08
2023-01-11T00:20:34.196Z,1.09
2023-01-11T00:23:01.696Z,1.12
2023-01-11T00:25:29.483Z,1.11
2023-01-11T00:27:57.285Z,1.12
2023-01-11T00:30:25.230Z,1.13
2023-01-11T00:32:57.223Z,1.14
2023-01-11T00:35:26.431Z,1.13
2023-01-11T00:37:54.620Z,1.10
2023-01-11T00:40:24.083Z,1.12
2023-01-11T00:43:10.100Z,1.12
2023-01-11T00:45:56.435Z,1.12
2023-01-11T00:48:24.445Z,1.12
2023-01-11T00:50:55.536Z,1.14
2023-01-11T00:53:23.064Z,1.19
2023-01-11T00:55:50.778Z,1.19
2023-01-11T00:58:18.578Z,1.16
2023-01-11T01:00:46.582Z,1.16
2023-01-11T01:03:14.431Z,1.15
2023-01-11T01:05:42.026Z,1.14
2023-01-11T01:08:09.610Z,1.16
2023-01-11T01:10:37.532Z,1.17
2023-01-11T01:13:29.164Z,1.15
2023-01-11T01:15:58.934Z,1.17
2023-01-11T01:18:26.832Z,1.18
2023-01-11T01:20:54.661Z,1.19
2023-01-11T01:23:22.489Z,1.20
2023-01-11T01:25:50.202Z,1.21
2023-01-11T01:28:18.869Z,1.21
2023-01-11T01:30:50.651Z,1.26
2023-01-11T01:33:18.447Z,1.25
2023-01-11T01:35:46.266Z,1.28
2023-01-11T01:38:13.739Z,1.27
2023-01-11T01:40:46.511Z,1.30
2023-01-11T01:43:17.631Z,1.29
2023-01-11T01:45:45.273Z,1.32
2023-01-11T01:48:18.678Z,1.28
2023-01-11T01:50:57.660Z,1.34
2023-01-11T01:53:47.690Z,1.32
2023-01-11T01:56:26.038Z,1.33
2023-01-11T01:59:02.279Z,1.35
2023-01-11T02:01:49.298Z,1.32
2023-01-11T02:04:37.272Z,1.38
2023-01-11T02:07:11.403Z,1.36
2023-01-11T02:09:48.548Z,1.42
2023-01-11T02:12:16.947Z,1.39
2023-01-11T02:14:47.145Z,1.41
2023-01-11T02:17:15.533Z,1.38
2023-01-11T02:20:04.760Z,1.43
2023-01-11T02:23:00.374Z,1.43
2023-01-11T02:25:46.576Z,1.47
2023-01-11T02:28:19.604Z,1.50
2023-01-11T02:31:03.289Z,1.41
2023-01-11T02:33:49.388Z,1.41
2023-01-11T02:36:48.365Z,1.46
2023-01-11T02:39:22.560Z,1.44
2023-01-11T02:42:25.409Z,1.44
2023-01-11T02:45:08.762Z,1.43
2023-01-11T02:47:58.711Z,1.43
2023-01-11T02:50:35.998Z,1.45
2023-01-11T02:53:28.172Z,1.46
2023-01-11T02:55:59.999Z,1.44
2023-01-11T02:58:34.834Z,1.44
2023-01-11T03:01:02.514Z,1.45
2023-01-11T03:03:33.556Z,1.46
2023-01-11T03:06:15.391Z,1.47
2023-01-11T03:09:10.424Z,1.45
2023-01-11T03:12:21.847Z,1.47
2023-01-11T03:15:07.471Z,1.49
2023-01-11T03:17:59.901Z,1.51
2023-01-11T03:20:33.933Z,1.50
2023-01-11T03:23:35.005Z,1.49
2023-01-11T03:26:19.165Z,1.49
2023-01-11T03:29:02.953Z,1.49
2023-01-11T03:31:39.478Z,1.48
2023-01-11T03:34:38.912Z,1.47
2023-01-11T03:37:12.997Z,1.50
2023-01-11T03:40:00.693Z,1.48
2023-01-11T03:42:30.989Z,1.53
2023-01-11T03:45:01.502Z,1.52
2023-01-11T03:47:30.587Z,1.55
2023-01-11T03:50:12.495Z,1.55
2023-01-11T03:52:42.433Z,1.55
2023-01-11T03:55:14.520Z,1.56
2023-01-11T03:57:51.281Z,1.56
2023-01-11T04:00:22.777Z,1.56
2023-01-11T04:02:50.568Z,1.58
2023-01-11T04:05:18.334Z,1.56
2023-01-11T04:07:46.196Z,1.57
2023-01-11T04:10:14.216Z,1.58
2023-01-11T04:12:41.747Z,1.64
2023-01-11T04:15:10.106Z,1.64
2023-01-11T04:17:37.613Z,1.62
2023-01-11T04:20:10.371Z,1.64
2023-01-11T04:22:38.979Z,1.63
2023-01-11T04:25:08.936Z,1.63
2023-01-11T04:27:36.695Z,1.57
2023-01-11T04:30:04.979Z,1.63
2023-01-11T04:32:32.601Z,1.65
2023-01-11T04:35:00.310Z,1.64
2023-01-11T04:37:28.129Z,1.66
2023-01-11T04:39:56.064Z,1.62
2023-01-11T04:42:24.978Z,1.60
2023-01-11T04:44:53.039Z,1.60
2023-01-11T04:47:23.831Z,1.61
2023-01-11T04:49:51.929Z,1.60
2023-01-11T04:52:20.551Z,1.62
2023-01-11T04:54:48.857Z,1.61
2023-01-11T04:57:17.726Z,1.59
2023-01-11T04:59:48.378Z,1.60
2023-01-11T05:02:16.912Z,1.61
2023-01-11T05:04:44.790Z,1.59
2023-01-11T05:07:12.726Z,1.61
2023-01-11T05:09:40.941Z,1.60
2023-01-11T05:12:08.507Z,1.62
2023-01-11T05:14:35.946Z,1.60
2023-01-11T05:17:03.462Z,1.64
2023-01-11T05:19:30.908Z,1.63
2023-01-11T05:21:58.619Z,1.62
2023-01-11T05:24:26.152Z,1.61
2023-01-11T05:26:53.828Z,1.60
2023-01-11T05:29:21.929Z,1.60
2023-01-11T05:31:49.730Z,1.62
2023-01-11T05:34:17.857Z,1.60
2023-01-11T05:36:45.721Z,1.60
2023-01-11T05:39:14.696Z,1.59
2023-01-11T05:41:42.624Z,1.57
2023-01-11T05:44:32.429Z,1.61
2023-01-11T05:47:00.350Z,1.59
2023-01-11T05:49:27.996Z,1.62
2023-01-11T05:51:55.621Z,1.59
2023-01-11T05:54:23.203Z,1.64
2023-01-11T05:56:50.737Z,1.60
2023-01-11T05:59:18.595Z,1.62
2023-01-11T06:01:46.555Z,1.61
2023-01-11T06:04:14.645Z,1.60
2023-01-11T06:06:42.377Z,1.60
2023-01-11T06:09:10.058Z,1.66
2023-01-11T06:11:37.534Z,1.66
2023-01-11T06:14:05.067Z,1.64
2023-01-11T06:16:32.560Z,1.62
2023-01-11T06:19:00.652Z,1.64
2023-01-11T06:21:28.366Z,1.71
2023-01-11T06:23:56.153Z,1.71
2023-01-11T06:26:24.386Z,1.63
2023-01-11T06:28:52.126Z,1.63
2023-01-11T06:31:20.047Z,1.62
2023-01-11T06:33:47.786Z,1.58
2023-01-11T06:36:16.113Z,1.55
2023-01-11T06:38:44.655Z,1.56
2023-01-11T06:41:13.393Z,1.60
2023-01-11T06:43:42.163Z,1.60
2023-01-11T06:46:14.460Z,1.58
2023-01-11T06:48:42.601Z,1.57
2023-01-11T06:51:12.052Z,1.58
2023-01-11T06:53:40.796Z,1.60
2023-01-11T06:56:10.915Z,1.60
2023-01-11T06:58:38.769Z,1.61
2023-01-11T07:01:06.699Z,1.59
2023-01-11T07:03:34.571Z,1.60
2023-01-11T07:06:02.641Z,1.65
2023-01-11T07:08:30.107Z,1.60
2023-01-11T07:10:58.071Z,1.57
2023-01-11T07:13:26.060Z,1.58
2023-01-11T07:15:57.964Z,1.58
2023-01-11T07:18:25.582Z,1.57
2023-01-11T07:20:53.534Z,1.55
2023-01-11T07:23:21.373Z,1.57
2023-01-11T07:25:49.936Z,1.55
2023-01-11T07:28:17.591Z,1.55
2023-01-11T07:30:57.253Z,1.56
2023-01-11T07:33:26.832Z,1.55
2023-01-11T07:35:54.744Z,1.55
2023-01-11T07:38:23.000Z,1.55
2023-01-11T07:40:50.920Z,1.57
2023-01-11T07:43:20.060Z,1.56
2023-01-11T07:45:50.299Z,1.56
2023-01-11T07:48:27.221Z,1.53
2023-01-11T07:50:55.336Z,1.52
2023-01-11T07:53:25.946Z,1.53
2023-01-11T07:55:56.462Z,1.52
2023-01-11T07:58:24.376Z,1.53
2023-01-11T08:00:51.898Z,1.58
2023-01-11T08:03:19.600Z,1.57
2023-01-11T08:05:53.826Z,1.58
2023-01-11T08:08:21.671Z,1.54
2023-01-11T08:11:12.288Z,1.52
2023-01-11T08:13:58.607Z,1.49
2023-01-11T08:16:27.402Z,1.55
2023-01-11T08:18:54.989Z,1.52
2023-01-11T08:21:22.525Z,1.50
2023-01-11T08:23:50.225Z,1.47
2023-01-11T08:26:18.114Z,1.53
2023-01-11T08:28:46.964Z,1.55
2023-01-11T08:31:14.734Z,1.55
2023-01-11T08:33:42.307Z,1.56
2023-01-11T08:36:12.012Z,1.54
2023-01-11T08:38:40.188Z,1.54
2023-01-11T08:41:10.878Z,1.49
2023-01-11T08:43:39.108Z,1.53
2023-01-11T08:46:07.846Z,1.55
2023-01-11T08:48:36.244Z,1.49
2023-01-11T08:51:04.129Z,1.48
2023-01-11T08:53:32.007Z,1.50
2023-01-11T08:55:59.725Z,1.53
2023-01-11T08:58:27.863Z,1.48
2023-01-11T09:00:59.001Z,1.44
2023-01-11T09:03:26.563Z,1.46
2023-01-11T09:05:54.110Z,1.46
2023-01-11T09:08:21.605Z,1.43
2023-01-11T09:10:49.321Z,1.44
2023-01-11T09:13:17.366Z,1.46
2023-01-11T09:15:46.834Z,1.42
2023-01-11T09:18:15.569Z,1.46
2023-01-11T09:20:43.260Z,1.48
2023-01-11T09:23:10.691Z,1.45
2023-01-11T09:25:38.445Z,1.44
2023-01-11T09:28:06.188Z,1.44
2023-01-11T09:30:33.920Z,1.49
2023-01-11T09:33:01.938Z,1.51
2023-01-11T09:35:29.795Z,1.51
2023-01-11T09:37:59.138Z,1.53
2023-01-11T09:40:42.074Z,1.55
2023-01-11T09:43:15.035Z,1.56
2023-01-11T09:45:46.972Z,1.53
2023-01-11T09:48:33.312Z,1.58
2023-01-11T09:51:01.702Z,1.54
2023-01-11T09:53:36.509Z,1.55
2023-01-11T09:56:10.082Z,1.57
2023-01-11T09:59:09.865Z,1.58
2023-01-11T10:01:54.177Z,1.57
2023-01-11T10:04:33.071Z,1.63
2023-01-11T10:07:29.312Z,1.63
2023-01-11T10:18:25.386Z,1.60
2023-01-11T10:19:48.064Z,1.65
2023-01-11T10:22:31.748Z,1.63
2023-01-11T10:25:21.979Z,1.64
2023-01-11T10:28:01.613Z,1.66
2023-01-11T10:30:50.321Z,1.68
2023-01-11T10:33:42.390Z,1.74
2023-01-11T10:36:21.225Z,1.70
2023-01-11T10:38:56.412Z,1.68
2023-01-11T10:41:36.015Z,1.73
2023-01-11T10:44:10.079Z,1.77
2023-01-11T10:46:44.553Z,1.73
2023-01-11T10:49:33.735Z,1.81
2023-01-11T10:52:14.420Z,1.80
2023-01-11T10:54:46.883Z,1.79
2023-01-11T10:58:01.705Z,1.81
2023-01-11T11:00:37.016Z,1.83
2023-01-11T11:03:22.298Z,1.83
2023-01-11T11:06:23.790Z,1.88
2023-01-11T11:08:59.451Z,1.86
2023-01-11T11:11:31.350Z,1.89
2023-01-11T11:14:20.820Z,1.88
2023-01-11T11:17:26.463Z,1.90
2023-01-11T11:19:54.092Z,1.85
2023-01-11T11:22:21.583Z,1.85
2023-01-11T11:24:55.318Z,1.91
2023-01-11T11:27:33.121Z,1.87
2023-01-11T11:30:00.704Z,1.85
2023-01-11T11:32:32.857Z,1.85
2023-01-11T11:35:01.693Z,1.86
2023-01-11T11:37:35.548Z,1.88
2023-01-11T11:40:04.051Z,1.85
2023-01-11T11:42:32.096Z,1.83
2023-01-11T11:45:11.791Z,1.87
2023-01-11T11:47:39.372Z,1.87
2023-01-11T11:50:27.315Z,1.88
2023-01-11T11:53:05.969Z,1.91
2023-01-11T11:55:35.130Z,1.91
2023-01-11T11:58:08.619Z,1.92
2023-01-11T12:00:44.510Z,1.90
2023-01-11T12:03:32.313Z,1.90
2023-01-11T12:06:05.413Z,1.89
2023-01-11T12:08:35.476Z,1.89
2023-01-11T12:11:06.784Z,1.89
2023-01-11T12:13:36.328Z,1.87
2023-01-11T12:16:20.245Z,1.91
2023-01-11T12:18:48.095Z,1.89
2023-01-11T12:21:22.693Z,1.90
2023-01-11T12:24:23.801Z,1.88
2023-01-11T12:27:03.337Z,1.87
2023-01-11T12:29:31.009Z,1.86
2023-01-11T12:32:13.902Z,1.86
2023-01-11T12:35:04.704Z,1.86
2023-01-11T12:37:37.863Z,1.91
2023-01-11T12:40:13.494Z,1.88
2023-01-11T12:42:47.019Z,1.87
2023-01-11T12:45:23.523Z,1.86
2023-01-11T12:48:06.239Z,1.82
2023-01-11T12:50:50.982Z,1.81
2023-01-11T12:53:47.763Z,1.84
2023-01-11T12:56:21.261Z,1.83
2023-01-11T12:58:59.229Z,1.84
2023-01-11T13:01:39.216Z,1.81
2023-01-11T13:04:37.300Z,1.79
2023-01-11T13:07:38.343Z,1.79
2023-01-11T13:10:33.144Z,1.79
2023-01-11T13:13:18.294Z,1.78
2023-01-11T13:16:00.125Z,1.79
2023-01-11T13:18:41.375Z,1.81
2023-01-11T13:21:30.360Z,1.79
2023-01-11T13:24:26.439Z,1.79
2023-01-11T13:27:06.034Z,1.75
2023-01-11T13:29:43.981Z,1.76
2023-01-11T13:32:19.172Z,1.74
2023-01-11T13:35:01.519Z,1.74
2023-01-11T13:37:44.206Z,1.77
2023-01-11T13:40:17.924Z,1.75
2023-01-11T13:42:51.179Z,1.73
2023-01-11T13:45:35.289Z,1.72
2023-01-11T13:48:21.922Z,1.73
2023-01-11T13:51:08.242Z,1.73
2023-01-11T13:53:47.845Z,1.71
2023-01-11T13:56:40.732Z,1.68
2023-01-11T13:59:22.129Z,1.70
2023-01-11T14:02:02.743Z,1.71
2023-01-11T14:04:47.025Z,1.73
2023-01-11T14:07:31.116Z,1.69
2023-01-11T14:10:08.230Z,1.70
2023-01-11T14:12:39.646Z,1.70
2023-01-11T14:15:31.484Z,1.71
2023-01-11T14:18:23.873Z,1.72
2023-01-11T14:21:32.536Z,1.72
2023-01-11T14:24:01.534Z,1.71
2023-01-11T14:26:38.337Z,1.70
2023-01-11T14:29:10.575Z,1.70
2023-01-11T14:32:00.094Z,1.70
2023-01-11T14:34:56.843Z,1.75
2023-01-11T14:37:38.443Z,1.72
2023-01-11T14:40:05.831Z,1.74
2023-01-11T14:43:05.915Z,1.74
2023-01-11T14:45:33.632Z,1.72
2023-01-11T14:48:21.531Z,1.72
2023-01-11T14:50:57.782Z,1.70
2023-01-11T14:53:31.337Z,1.71
2023-01-11T14:55:58.783Z,1.73
2023-01-11T14:58:32.834Z,1.74
2023-01-11T15:01:00.418Z,1.72
2023-01-11T15:03:47.706Z,1.76
2023-01-11T15:06:20.340Z,1.82
2023-01-11T15:08:51.438Z,1.80
2023-01-11T15:11:34.457Z,1.79
2023-01-11T15:14:20.586Z,1.78
2023-01-11T15:17:11.906Z,1.79
2023-01-11T15:19:43.159Z,1.83
2023-01-11T15:22:28.164Z,1.80
2023-01-11T15:25:00.029Z,1.81
2023-01-11T15:27:32.801Z,1.81
2023-01-11T15:30:02.295Z,1.76
2023-01-11T15:32:33.309Z,1.80
2023-01-11T15:35:29.599Z,1.75
2023-01-11T15:38:08.414Z,1.76
2023-01-11T15:40:40.698Z,1.74
2023-01-11T15:43:26.202Z,1.74
2023-01-11T15:46:27.552Z,1.73
2023-01-11T15:49:42.633Z,1.73
2023-01-11T15:52:31.213Z,1.71
2023-01-11T15:55:39.983Z,1.74
2023-01-11T15:58:32.393Z,1.67
2023-01-11T16:01:09.064Z,1.65
2023-01-11T16:04:00.391Z,1.66
2023-01-11T16:06:40.250Z,1.67
2023-01-11T16:09:16.895Z,1.69
2023-01-11T16:11:50.968Z,1.70
2023-01-11T16:14:54.193Z,1.63
2023-01-11T16:17:24.442Z,1.60
2023-01-11T16:19:57.051Z,1.58
2023-01-11T16:22:27.656Z,1.58
2023-01-11T16:25:01.586Z,1.57
2023-01-11T16:27:34.068Z,1.64
2023-01-11T16:30:02.835Z,1.62
2023-01-11T16:32:32.944Z,1.61
2023-01-11T16:35:02.210Z,1.60
2023-01-11T16:37:38.865Z,1.56
2023-01-11T16:40:12.992Z,1.58
2023-01-11T16:42:50.201Z,1.57
2023-01-11T16:45:22.610Z,1.58
2023-01-11T16:48:06.486Z,1.60
2023-01-11T16:50:35.239Z,1.58
2023-01-11T16:53:05.101Z,1.55
2023-01-11T16:55:37.862Z,1.56
2023-01-11T16:58:28.896Z,1.61
2023-01-11T17:01:05.640Z,1.60
2023-01-11T17:03:38.720Z,1.57
2023-01-11T17:06:09.066Z,1.56
2023-01-11T17:08:39.816Z,1.54
2023-01-11T17:11:21.406Z,1.54
2023-01-11T17:14:18.735Z,1.52
2023-01-11T17:16:49.542Z,1.48
2023-01-11T17:19:25.096Z,1.55
2023-01-11T17:22:05.695Z,1.54
2023-01-11T17:24:42.174Z,1.48
2023-01-11T17:27:19.823Z,1.46
2023-01-11T17:29:51.834Z,1.47
2023-01-11T17:32:45.642Z,1.39
2023-01-11T17:35:22.502Z,1.35
2023-01-11T17:37:56.739Z,1.37
2023-01-11T17:40:31.779Z,1.29
2023-01-11T17:43:45.643Z,1.29
2023-01-11T17:46:19.659Z,1.32
2023-01-11T17:48:59.074Z,1.33
2023-01-11T17:51:29.806Z,1.27
2023-01-11T17:53:58.296Z,1.24
2023-01-11T17:56:50.148Z,1.24
2023-01-11T17:59:23.609Z,1.22
2023-01-11T18:02:00.133Z,1.17
2023-01-11T18:04:28.986Z,1.16
2023-01-11T18:07:07.241Z,1.13
2023-01-11T18:09:43.972Z,1.14
2023-01-11T18:12:20.803Z,1.11
2023-01-11T18:14:52.579Z,1.04
2023-01-11T18:17:32.489Z,1.06
2023-01-11T18:20:01.515Z,1.02
2023-01-11T18:22:37.494Z,0.99
2023-01-11T18:25:20.115Z,1.02
2023-01-11T18:27:48.577Z,0.99
2023-01-11T18:30:47.764Z,0.99
2023-01-11T18:33:20.423Z,0.98
2023-01-11T18:35:50.235Z,0.94
2023-01-11T18:38:20.511Z,0.93
2023-01-11T18:40:50.776Z,0.96
2023-01-11T18:43:24.928Z,0.90
2023-01-11T18:45:52.685Z,0.91
2023-01-11T18:48:20.588Z,0.93
2023-01-11T18:50:49.451Z,0.93
2023-01-11T18:53:17.822Z,0.94
2023-01-11T18:55:46.435Z,0.94
2023-01-11T18:58:14.320Z,0.93
2023-01-11T19:00:42.573Z,0.88
2023-01-11T19:03:11.742Z,0.85
2023-01-11T19:05:40.176Z,0.85
2023-01-11T19:08:08.037Z,0.84
2023-01-11T19:10:35.759Z,0.81
2023-01-11T19:13:03.666Z,0.82
2023-01-11T19:15:34.071Z,0.80
2023-01-11T19:18:03.676Z,0.83
2023-01-11T19:23:04.322Z,0.79
2023-01-11T19:25:32.733Z,0.83
2023-01-11T19:28:04.832Z,0.77
2023-01-11T19:30:32.950Z,0.80
2023-01-11T19:33:01.059Z,0.77
2023-01-11T19:35:29.312Z,0.80
2023-01-11T19:37:57.274Z,0.81
2023-01-11T19:40:25.280Z,0.83
2023-01-11T19:42:53.087Z,0.79
2023-01-11T19:45:21.122Z,0.86
2023-01-11T19:47:48.645Z,0.85
2023-01-11T19:50:17.884Z,0.81
2023-01-11T19:52:46.883Z,0.79
2023-01-11T19:55:14.533Z,0.81
2023-01-11T19:57:42.545Z,0.82
2023-01-11T20:00:14.430Z,0.79
2023-01-11T20:02:42.630Z,0.83
2023-01-11T20:05:10.531Z,0.82
2023-01-11T20:07:38.489Z,0.82
2023-01-11T20:10:07.500Z,0.77
2023-01-11T20:12:35.921Z,0.84
2023-01-11T20:15:04.400Z,0.85
2023-01-11T20:17:33.417Z,0.84
2023-01-11T20:20:02.898Z,0.84
2023-01-11T20:22:31.608Z,0.84
2023-01-11T20:25:00.493Z,0.81
2023-01-11T20:27:28.513Z,0.80
2023-01-11T20:29:56.453Z,0.79
2023-01-11T20:32:40.170Z,0.83
2023-01-11T20:35:10.218Z,0.81
2023-01-11T20:37:37.844Z,0.86
2023-01-11T20:40:06.898Z,0.81
2023-01-11T20:42:35.048Z,0.82
2023-01-11T20:45:02.871Z,0.83
2023-01-11T20:47:31.026Z,0.85
2023-01-11T20:49:59.964Z,0.82
2023-01-11T20:52:27.514Z,0.77
2023-01-11T20:54:54.970Z,0.77
2023-01-11T20:57:22.700Z,0.79
2023-01-11T20:59:50.248Z,0.81
2023-01-11T21:02:17.968Z,0.81
2023-01-11T21:04:45.905Z,0.78
2023-01-11T21:07:13.915Z,0.78
2023-01-11T21:09:41.412Z,0.78
2023-01-11T21:12:09.681Z,0.78
2023-01-11T21:14:37.348Z,0.80
2023-01-11T21:17:04.865Z,0.82
2023-01-11T21:19:35.299Z,0.80
2023-01-11T21:22:02.880Z,0.80
2023-01-11T21:24:30.325Z,0.77
2023-01-11T21:26:57.729Z,0.77
2023-01-11T21:29:25.839Z,0.79
2023-01-11T21:31:53.520Z,0.78
2023-01-11T21:34:21.210Z,0.80
2023-01-11T21:36:49.178Z,0.82
2023-01-11T21:39:18.676Z,0.84
2023-01-11T21:41:55.085Z,0.82
2023-01-11T21:44:28.268Z,0.82
2023-01-11T21:46:55.923Z,0.81
2023-01-11T21:49:24.350Z,0.83
2023-01-11T21:51:52.525Z,0.78
2023-01-11T21:54:20.398Z,0.81
2023-01-11T21:56:49.115Z,0.79
2023-01-11T21:59:17.538Z,0.80
2023-01-11T22:01:46.289Z,0.82
2023-01-11T22:04:14.740Z,0.82
2023-01-11T22:06:47.322Z,0.80
2023-01-11T22:09:15.413Z,0.80
2023-01-11T22:11:43.530Z,0.78
2023-01-11T22:14:12.317Z,0.76
2023-01-11T22:16:40.693Z,0.74
2023-01-11T22:19:08.803Z,0.74
2023-01-11T22:21:37.063Z,0.77
2023-01-11T22:24:06.857Z,0.80
2023-01-11T22:26:38.578Z,0.76
2023-01-11T22:29:17.025Z,0.77
2023-01-11T22:31:55.438Z,0.76
2023-01-11T22:34:23.542Z,0.75
2023-01-11T22:36:51.027Z,0.72
2023-01-11T22:39:19.671Z,0.75
2023-01-11T22:41:51.311Z,0.75
2023-01-11T22:44:19.516Z,0.75
2023-01-11T22:46:47.197Z,0.76
2023-01-11T22:49:15.394Z,0.75
2023-01-11T22:51:44.023Z,0.74
2023-01-11T22:54:12.315Z,0.79
2023-01-11T22:56:40.566Z,0.79
2023-01-11T22:59:08.711Z,0.78
2023-01-11T23:01:39.034Z,0.74
2023-01-11T23:04:10.797Z,0.78
2023-01-11T23:06:41.164Z,0.78
2023-01-11T23:09:14.154Z,0.76
2023-01-11T23:12:01.992Z,0.78
2023-01-11T23:14:33.805Z,0.76
2023-01-11T23:17:07.403Z,0.80
2023-01-11T23:19:36.530Z,0.78
2023-01-11T23:22:04.545Z,0.77
2023-01-11T23:24:32.407Z,0.74
2023-01-11T23:26:59.903Z,0.76
2023-01-11T23:29:28.644Z,0.74
2023-01-11T23:31:56.436Z,0.76
2023-01-11T23:34:24.236Z,0.75
2023-01-11T23:36:51.964Z,0.75
2023-01-11T23:39:19.494Z,0.75
2023-01-11T23:42:05.296Z,0.79
2023-01-11T23:44:33.320Z,0.77
2023-01-11T23:47:19.365Z,0.73
2023-01-11T23:49:55.161Z,0.73
2023-01-11T23:52:28.132Z,0.77
2023-01-11T23:54:55.737Z,0.73
2023-01-11T23:57:25.489Z,0.73
2023-01-11T23:59:53.411Z,0.70
